createdAt,value
2022-11-17T00:00:39.632Z,996.51
2022-11-17T00:01:39.595Z,996.50
2022-11-17T00:02:39.699Z,996.48
2022-11-17T00:03:39.581Z,996.38
2022-11-17T00:04:39.699Z,996.36
2022-11-17T00:05:39.566Z,996.37
2022-11-17T00:06:39.546Z,996.44
2022-11-17T00:07:39.548Z,996.33
2022-11-17T00:08:39.543Z,996.29
2022-11-17T00:09:39.502Z,996.31
2022-11-17T00:10:39.471Z,996.28
2022-11-17T00:11:39.500Z,996.20
2022-11-17T00:12:39.510Z,996.33
2022-11-17T00:13:39.460Z,996.23
2022-11-17T00:14:39.414Z,996.31
2022-11-17T00:15:39.488Z,996.34
2022-11-17T00:16:39.389Z,996.29
2022-11-17T00:17:39.458Z,996.29
2022-11-17T00:18:39.373Z,996.28
2022-11-17T00:19:39.363Z,996.25
2022-11-17T00:20:39.334Z,996.26
2022-11-17T00:21:39.332Z,996.17
2022-11-17T00:22:39.384Z,996.13
2022-11-17T00:23:39.304Z,996.10
2022-11-17T00:24:39.338Z,996.10
2022-11-17T00:25:39.312Z,996.12
2022-11-17T00:26:39.257Z,996.07
2022-11-17T00:27:39.247Z,996.05
2022-11-17T00:28:39.251Z,996.03
2022-11-17T00:29:39.563Z,996.01
2022-11-17T00:30:42.460Z,995.92
2022-11-17T00:31:39.201Z,995.91
2022-11-17T00:32:39.186Z,995.86
2022-11-17T00:33:39.214Z,995.81
2022-11-17T00:34:39.168Z,995.87
2022-11-17T00:35:39.145Z,995.87
2022-11-17T00:36:39.156Z,995.81
2022-11-17T00:37:39.124Z,995.79
2022-11-17T00:38:39.144Z,995.78
2022-11-17T00:39:39.141Z,995.71
2022-11-17T00:40:39.074Z,995.59
2022-11-17T00:41:39.115Z,995.57
2022-11-17T00:42:39.046Z,995.58
2022-11-17T00:43:39.043Z,995.46
2022-11-17T00:44:39.067Z,995.45
2022-11-17T00:45:39.013Z,995.46
2022-11-17T00:46:39.040Z,995.45
2022-11-17T00:47:38.993Z,995.46
2022-11-17T00:48:38.969Z,995.42
2022-11-17T00:49:39.002Z,995.40
2022-11-17T00:50:38.972Z,995.38
2022-11-17T00:51:38.949Z,995.27
2022-11-17T00:52:39.016Z,995.27
2022-11-17T00:53:38.926Z,995.30
2022-11-17T00:54:38.885Z,995.29
2022-11-17T00:55:39.027Z,995.18
2022-11-17T00:56:38.856Z,995.11
2022-11-17T00:57:38.882Z,995.13
2022-11-17T00:58:38.833Z,995.10
2022-11-17T00:59:38.831Z,995.09
2022-11-17T01:00:38.803Z,995.09
2022-11-17T01:01:38.867Z,995.12
2022-11-17T01:02:38.814Z,995.11
2022-11-17T01:03:38.814Z,995.14
2022-11-17T01:04:38.748Z,995.16
2022-11-17T01:05:38.777Z,995.14
2022-11-17T01:06:38.811Z,995.12
2022-11-17T01:07:38.844Z,995.11
2022-11-17T01:08:38.710Z,995.12
2022-11-17T01:09:38.788Z,995.06
2022-11-17T01:10:38.675Z,995.07
2022-11-17T01:11:38.676Z,995.08
2022-11-17T01:12:38.701Z,995.06
2022-11-17T01:13:38.704Z,995.04
2022-11-17T01:14:38.648Z,995.03
2022-11-17T01:15:38.622Z,995.01
2022-11-17T01:16:38.743Z,995.09
2022-11-17T01:17:38.642Z,995.04
2022-11-17T01:18:38.616Z,995.02
2022-11-17T01:19:38.575Z,995.04
2022-11-17T01:20:38.537Z,994.98
2022-11-17T01:21:38.588Z,994.97
2022-11-17T01:22:38.524Z,994.88
2022-11-17T01:23:38.548Z,994.94
2022-11-17T01:24:38.492Z,994.90
2022-11-17T01:25:38.528Z,994.99
2022-11-17T01:26:38.454Z,994.91
2022-11-17T01:27:38.462Z,994.91
2022-11-17T01:28:38.516Z,994.92
2022-11-17T01:29:38.439Z,994.86
2022-11-17T01:30:38.470Z,994.86
2022-11-17T01:31:38.415Z,994.92
2022-11-17T01:32:38.386Z,994.89
2022-11-17T01:33:38.511Z,994.85
2022-11-17T01:34:38.384Z,994.92
2022-11-17T01:35:38.357Z,995.00
2022-11-17T01:36:38.326Z,994.90
2022-11-17T01:37:38.370Z,994.73
2022-11-17T01:38:38.303Z,994.76
2022-11-17T01:39:38.356Z,994.82
2022-11-17T01:40:38.283Z,994.78
2022-11-17T01:41:38.275Z,994.85
2022-11-17T01:42:38.281Z,994.75
2022-11-17T01:43:38.281Z,994.79
2022-11-17T01:44:38.236Z,994.76
2022-11-17T01:45:38.267Z,994.82
2022-11-17T01:46:38.225Z,994.81
2022-11-17T01:47:38.220Z,994.82
2022-11-17T01:48:38.166Z,994.80
2022-11-17T01:49:38.216Z,994.90
2022-11-17T01:50:38.190Z,994.75
2022-11-17T01:51:38.145Z,994.78
2022-11-17T01:52:38.121Z,994.78
2022-11-17T01:53:38.304Z,994.80
2022-11-17T01:54:38.165Z,994.76
2022-11-17T01:55:38.100Z,994.79
2022-11-17T01:56:38.145Z,994.76
2022-11-17T01:57:38.129Z,994.74
2022-11-17T01:58:38.076Z,994.83
2022-11-17T01:59:38.081Z,994.86
2022-11-17T02:00:38.039Z,994.81
2022-11-17T02:01:38.187Z,994.83
2022-11-17T02:02:38.017Z,994.86
2022-11-17T02:03:38.399Z,994.77
2022-11-17T02:04:38.027Z,994.81
2022-11-17T02:05:37.999Z,994.74
2022-11-17T02:06:38.031Z,994.76
2022-11-17T02:07:38.089Z,994.67
2022-11-17T02:08:37.940Z,994.72
2022-11-17T02:09:37.939Z,994.70
2022-11-17T02:10:37.940Z,994.71
2022-11-17T02:11:37.921Z,994.60
2022-11-17T02:12:37.988Z,994.57
2022-11-17T02:13:38.140Z,994.54
2022-11-17T02:14:37.839Z,994.53
2022-11-17T02:15:37.849Z,994.56
2022-11-17T02:16:37.811Z,994.55
2022-11-17T02:17:37.905Z,994.58
2022-11-17T02:18:37.846Z,994.57
2022-11-17T02:19:37.818Z,994.55
2022-11-17T02:20:37.760Z,994.55
2022-11-17T02:21:37.753Z,994.49
2022-11-17T02:22:37.794Z,994.51
2022-11-17T02:23:37.993Z,994.46
2022-11-17T02:24:37.734Z,994.50
2022-11-17T02:25:37.696Z,994.48
2022-11-17T02:26:37.819Z,994.48
2022-11-17T02:27:37.690Z,994.52
2022-11-17T02:28:37.643Z,994.53
2022-11-17T02:29:37.712Z,994.46
2022-11-17T02:30:37.632Z,994.41
2022-11-17T02:31:37.646Z,994.36
2022-11-17T02:32:37.605Z,994.37
2022-11-17T02:33:37.996Z,994.45
2022-11-17T02:34:37.620Z,994.43
2022-11-17T02:35:37.572Z,994.40
2022-11-17T02:36:37.535Z,994.40
2022-11-17T02:37:37.596Z,994.43
2022-11-17T02:38:37.515Z,994.42
2022-11-17T02:39:37.553Z,994.40
2022-11-17T02:40:37.577Z,994.23
2022-11-17T02:41:37.502Z,994.18
2022-11-17T02:42:37.461Z,994.12
2022-11-17T02:43:37.771Z,994.14
2022-11-17T02:44:37.442Z,994.07
2022-11-17T02:45:37.479Z,993.99
2022-11-17T02:46:37.419Z,994.01
2022-11-17T02:47:37.415Z,994.06
2022-11-17T02:48:37.439Z,994.06
2022-11-17T02:49:37.401Z,994.13
2022-11-17T02:50:37.362Z,994.12
2022-11-17T02:51:37.380Z,994.05
2022-11-17T02:52:37.345Z,994.15
2022-11-17T02:53:37.766Z,994.07
2022-11-17T02:54:37.309Z,994.08
2022-11-17T02:55:37.393Z,994.04
2022-11-17T02:56:37.328Z,994.01
2022-11-17T02:57:37.279Z,993.95
2022-11-17T02:58:37.358Z,993.84
2022-11-17T02:59:37.269Z,993.75
2022-11-17T03:00:37.228Z,993.81
2022-11-17T03:01:37.269Z,993.78
2022-11-17T03:02:37.348Z,993.80
2022-11-17T03:03:37.505Z,993.87
2022-11-17T03:04:37.172Z,993.87
2022-11-17T03:05:37.201Z,993.93
2022-11-17T03:06:37.184Z,993.94
2022-11-17T03:07:37.268Z,993.96
2022-11-17T03:08:37.120Z,994.02
2022-11-17T03:09:37.117Z,993.94
2022-11-17T03:10:37.095Z,993.94
2022-11-17T03:11:37.087Z,993.89
2022-11-17T03:12:37.112Z,993.89
2022-11-17T03:13:37.413Z,993.90
2022-11-17T03:14:37.050Z,993.86
2022-11-17T03:15:37.124Z,993.89
2022-11-17T03:16:37.044Z,993.86
2022-11-17T03:17:37.018Z,993.90
2022-11-17T03:18:37.078Z,993.85
2022-11-17T03:19:36.988Z,993.94
2022-11-17T03:20:36.960Z,993.95
2022-11-17T03:21:36.973Z,993.91
2022-11-17T03:22:36.941Z,993.87
2022-11-17T03:23:37.456Z,993.88
2022-11-17T03:24:36.936Z,993.89
2022-11-17T03:25:36.910Z,993.97
2022-11-17T03:26:36.904Z,993.93
2022-11-17T03:27:36.941Z,993.93
2022-11-17T03:28:36.853Z,993.85
2022-11-17T03:29:36.909Z,993.83
2022-11-17T03:30:37.753Z,993.89
2022-11-17T03:31:36.820Z,993.88
2022-11-17T03:32:36.824Z,993.84
2022-11-17T03:33:37.261Z,993.81
2022-11-17T03:34:36.791Z,993.91
2022-11-17T03:35:36.793Z,993.82
2022-11-17T03:36:36.764Z,993.86
2022-11-17T03:37:36.834Z,993.83
2022-11-17T03:38:36.758Z,993.87
2022-11-17T03:39:36.708Z,993.77
2022-11-17T03:40:36.870Z,993.78
2022-11-17T03:41:36.688Z,993.75
2022-11-17T03:42:36.708Z,993.71
2022-11-17T03:43:37.149Z,993.71
2022-11-17T03:44:36.691Z,993.81
2022-11-17T03:45:36.630Z,993.80
2022-11-17T03:46:36.718Z,993.77
2022-11-17T03:47:36.602Z,993.75
2022-11-17T03:48:36.606Z,993.77
2022-11-17T03:49:36.600Z,993.77
2022-11-17T03:50:36.578Z,993.79
2022-11-17T03:51:36.593Z,993.81
2022-11-17T03:52:36.552Z,993.84
2022-11-17T03:53:36.928Z,993.59
2022-11-17T03:54:36.547Z,993.73
2022-11-17T03:55:36.577Z,993.68
2022-11-17T03:56:36.526Z,993.83
2022-11-17T03:57:36.540Z,993.83
2022-11-17T03:58:36.493Z,993.74
2022-11-17T03:59:36.488Z,993.88
2022-11-17T04:00:36.456Z,993.94
2022-11-17T04:01:36.521Z,993.79
2022-11-17T04:02:36.449Z,993.94
2022-11-17T04:03:36.708Z,993.89
2022-11-17T04:04:36.401Z,993.82
2022-11-17T04:05:36.405Z,993.86
2022-11-17T04:06:36.370Z,993.92
2022-11-17T04:07:36.429Z,993.95
2022-11-17T04:08:36.372Z,993.82
2022-11-17T04:09:36.310Z,993.76
2022-11-17T04:10:36.321Z,993.89
2022-11-17T04:11:36.329Z,993.84
2022-11-17T04:12:36.291Z,993.83
2022-11-17T04:13:36.488Z,993.81
2022-11-17T04:14:36.274Z,993.79
2022-11-17T04:15:36.267Z,993.81
2022-11-17T04:16:36.238Z,993.79
2022-11-17T04:17:36.224Z,993.81
2022-11-17T04:18:36.267Z,993.69
2022-11-17T04:19:36.200Z,993.70
2022-11-17T04:20:36.183Z,993.71
2022-11-17T04:21:36.159Z,993.76
2022-11-17T04:22:36.175Z,993.75
2022-11-17T04:23:36.567Z,993.78
2022-11-17T04:24:36.175Z,993.79
2022-11-17T04:25:36.107Z,993.73
2022-11-17T04:26:36.112Z,993.63
2022-11-17T04:27:36.088Z,993.69
2022-11-17T04:28:36.082Z,993.52
2022-11-17T04:29:36.106Z,993.65
2022-11-17T04:30:36.042Z,993.65
2022-11-17T04:31:36.030Z,993.75
2022-11-17T04:32:36.035Z,993.74
2022-11-17T04:33:36.272Z,993.73
2022-11-17T04:34:35.996Z,993.64
2022-11-17T04:35:36.007Z,993.76
2022-11-17T04:36:36.011Z,993.68
2022-11-17T04:37:35.958Z,993.76
2022-11-17T04:38:35.968Z,993.70
2022-11-17T04:39:35.915Z,993.75
2022-11-17T04:40:35.971Z,993.68
2022-11-17T04:41:36.002Z,993.58
2022-11-17T04:42:35.897Z,993.57
2022-11-17T04:43:36.205Z,993.56
2022-11-17T04:44:35.901Z,993.61
2022-11-17T04:45:35.846Z,993.63
2022-11-17T04:46:35.890Z,993.62
2022-11-17T04:47:35.810Z,993.53
2022-11-17T04:48:35.852Z,993.57
2022-11-17T04:49:35.790Z,993.57
2022-11-17T04:50:35.795Z,993.67
2022-11-17T04:51:35.824Z,993.69
2022-11-17T04:52:35.761Z,993.58
2022-11-17T04:53:36.081Z,993.59
2022-11-17T04:54:35.767Z,993.61
2022-11-17T04:55:35.716Z,993.43
2022-11-17T04:56:35.711Z,993.53
2022-11-17T04:57:35.713Z,993.61
2022-11-17T04:58:35.701Z,993.64
2022-11-17T04:59:35.656Z,993.61
2022-11-17T05:00:35.659Z,993.62
2022-11-17T05:01:35.710Z,993.69
2022-11-17T05:02:35.713Z,993.65
2022-11-17T05:03:35.989Z,993.60
2022-11-17T05:04:35.629Z,993.62
2022-11-17T05:05:35.607Z,993.60
2022-11-17T05:06:35.595Z,993.62
2022-11-17T05:07:35.666Z,993.55
2022-11-17T05:08:35.555Z,993.56
2022-11-17T05:09:35.586Z,993.53
2022-11-17T05:10:35.553Z,993.54
2022-11-17T05:11:35.498Z,993.65
2022-11-17T05:12:35.547Z,993.62
2022-11-17T05:13:35.790Z,993.65
2022-11-17T05:14:35.467Z,993.63
2022-11-17T05:15:35.441Z,993.59
2022-11-17T05:16:35.469Z,993.55
2022-11-17T05:17:35.415Z,993.57
2022-11-17T05:18:35.452Z,993.52
2022-11-17T05:19:35.406Z,993.49
2022-11-17T05:20:35.392Z,993.48
2022-11-17T05:21:35.377Z,993.42
2022-11-17T05:22:35.371Z,993.46
2022-11-17T05:23:35.731Z,993.58
2022-11-17T05:24:35.338Z,993.57
2022-11-17T05:25:35.308Z,993.56
2022-11-17T05:26:35.332Z,993.60
2022-11-17T05:27:35.351Z,993.58
2022-11-17T05:28:35.291Z,993.59
2022-11-17T05:29:35.305Z,993.65
2022-11-17T05:30:35.291Z,993.66
2022-11-17T05:31:35.238Z,993.57
2022-11-17T05:32:35.284Z,993.66
2022-11-17T05:33:37.931Z,993.68
2022-11-17T05:34:35.248Z,993.68
2022-11-17T05:35:35.250Z,993.65
2022-11-17T05:36:35.184Z,993.57
2022-11-17T05:37:35.166Z,993.64
2022-11-17T05:38:35.154Z,993.64
2022-11-17T05:39:35.170Z,993.73
2022-11-17T05:40:35.199Z,993.75
2022-11-17T05:41:35.106Z,993.69
2022-11-17T05:42:35.108Z,993.74
2022-11-17T05:43:35.359Z,993.65
2022-11-17T05:44:35.140Z,993.78
2022-11-17T05:45:35.094Z,993.80
2022-11-17T05:46:35.051Z,993.79
2022-11-17T05:47:35.122Z,993.79
2022-11-17T05:48:35.044Z,993.79
2022-11-17T05:49:35.018Z,993.81
2022-11-17T05:50:35.041Z,993.81
2022-11-17T05:51:34.976Z,993.88
2022-11-17T05:52:34.988Z,993.80
2022-11-17T05:53:35.275Z,993.81
2022-11-17T05:54:34.949Z,993.82
2022-11-17T05:55:34.993Z,993.88
2022-11-17T05:56:34.912Z,993.92
2022-11-17T05:57:34.899Z,994.00
2022-11-17T05:58:34.895Z,993.93
2022-11-17T05:59:34.947Z,993.84
2022-11-17T06:00:34.871Z,993.98
2022-11-17T06:01:34.867Z,993.99
2022-11-17T06:02:34.886Z,993.97
2022-11-17T06:03:35.073Z,994.07
2022-11-17T06:04:34.945Z,994.00
2022-11-17T06:05:34.795Z,993.97
2022-11-17T06:06:34.820Z,994.00
2022-11-17T06:07:34.834Z,993.95
2022-11-17T06:08:34.787Z,993.99
2022-11-17T06:09:34.787Z,993.98
2022-11-17T06:10:34.758Z,993.97
2022-11-17T06:11:34.758Z,994.01
2022-11-17T06:12:34.743Z,994.05
2022-11-17T06:13:34.946Z,994.05
2022-11-17T06:14:34.706Z,994.05
2022-11-17T06:15:34.648Z,994.06
2022-11-17T06:16:34.716Z,994.05
2022-11-17T06:17:34.603Z,994.05
2022-11-17T06:18:34.593Z,993.98
2022-11-17T06:19:34.645Z,994.03
2022-11-17T06:20:34.601Z,993.98
2022-11-17T06:22:04.488Z,993.98
2022-11-17T06:22:34.697Z,994.05
2022-11-17T06:23:34.855Z,993.99
2022-11-17T06:24:34.495Z,993.92
2022-11-17T06:25:34.498Z,993.97
2022-11-17T06:26:34.484Z,994.03
2022-11-17T06:27:34.575Z,993.96
2022-11-17T06:28:34.482Z,993.99
2022-11-17T06:29:38.170Z,993.89
2022-11-17T06:30:34.445Z,993.88
2022-11-17T06:31:34.390Z,993.92
2022-11-17T06:32:34.398Z,993.95
2022-11-17T06:33:34.691Z,993.94
2022-11-17T06:34:34.364Z,994.00
2022-11-17T06:35:34.353Z,994.02
2022-11-17T06:36:34.351Z,993.95
2022-11-17T06:37:34.360Z,994.03
2022-11-17T06:38:34.356Z,993.98
2022-11-17T06:39:34.289Z,994.00
2022-11-17T06:40:34.381Z,993.91
2022-11-17T06:41:34.271Z,993.92
2022-11-17T06:42:34.275Z,994.03
2022-11-17T06:43:34.696Z,993.92
2022-11-17T06:44:34.250Z,993.89
2022-11-17T06:45:34.261Z,993.89
2022-11-17T06:46:34.216Z,993.87
2022-11-17T06:47:34.205Z,993.92
2022-11-17T06:48:34.526Z,993.94
2022-11-17T06:49:34.179Z,993.98
2022-11-17T06:50:34.181Z,994.00
2022-11-17T06:51:34.130Z,993.95
2022-11-17T06:52:34.228Z,993.99
2022-11-17T06:53:34.427Z,993.95
2022-11-17T06:54:34.142Z,993.99
2022-11-17T06:55:34.156Z,994.06
2022-11-17T06:56:34.091Z,994.06
2022-11-17T06:57:34.059Z,994.10
2022-11-17T06:58:34.495Z,994.13
2022-11-17T06:59:34.068Z,994.15
2022-11-17T07:00:34.067Z,994.25
2022-11-17T07:01:34.077Z,994.22
2022-11-17T07:02:34.009Z,994.17
2022-11-17T07:03:34.321Z,994.25
2022-11-17T07:04:34.077Z,994.43
2022-11-17T07:05:33.985Z,994.28
2022-11-17T07:06:34.049Z,994.35
2022-11-17T07:07:34.030Z,994.34
2022-11-17T07:08:34.244Z,994.33
2022-11-17T07:09:33.908Z,994.24
2022-11-17T07:10:34.044Z,994.21
2022-11-17T07:11:33.909Z,994.20
2022-11-17T07:12:33.891Z,994.19
2022-11-17T07:13:33.883Z,994.25
2022-11-17T07:14:33.861Z,994.32
2022-11-17T07:15:33.880Z,994.25
2022-11-17T07:16:33.836Z,994.26
2022-11-17T07:17:33.836Z,994.32
2022-11-17T07:18:34.184Z,994.35
2022-11-17T07:19:33.789Z,994.43
2022-11-17T07:20:33.872Z,994.35
2022-11-17T07:21:33.769Z,994.46
2022-11-17T07:22:33.753Z,994.36
2022-11-17T07:23:33.796Z,994.36
2022-11-17T07:24:33.719Z,994.40
2022-11-17T07:25:33.730Z,994.37
2022-11-17T07:26:33.728Z,994.41
2022-11-17T07:27:33.659Z,994.39
2022-11-17T07:28:34.036Z,994.38
2022-11-17T07:29:33.693Z,994.39
2022-11-17T07:30:33.638Z,994.38
2022-11-17T07:31:33.653Z,994.43
2022-11-17T07:32:33.613Z,994.40
2022-11-17T07:33:33.596Z,994.42
2022-11-17T07:34:33.623Z,994.46
2022-11-17T07:35:33.585Z,994.46
2022-11-17T07:36:33.576Z,994.41
2022-11-17T07:37:33.639Z,994.47
2022-11-17T07:38:33.962Z,994.41
2022-11-17T07:39:33.514Z,994.50
2022-11-17T07:40:33.569Z,994.55
2022-11-17T07:41:33.506Z,994.47
2022-11-17T07:42:33.514Z,994.59
2022-11-17T07:43:33.452Z,994.46
2022-11-17T07:44:33.469Z,994.58
2022-11-17T07:45:33.521Z,994.59
2022-11-17T07:46:33.455Z,994.65
2022-11-17T07:47:33.483Z,994.70
2022-11-17T07:48:33.662Z,994.80
2022-11-17T07:49:33.451Z,994.73
2022-11-17T07:50:33.369Z,994.79
2022-11-17T07:51:33.459Z,994.86
2022-11-17T07:52:37.350Z,994.91
2022-11-17T07:53:33.532Z,994.90
2022-11-17T07:54:33.373Z,994.86
2022-11-17T07:55:33.327Z,994.92
2022-11-17T07:56:33.298Z,994.78
2022-11-17T07:57:33.287Z,994.83
2022-11-17T07:58:33.700Z,994.82
2022-11-17T07:59:33.395Z,994.80
2022-11-17T08:00:33.274Z,994.80
2022-11-17T08:01:33.286Z,994.83
2022-11-17T08:02:33.209Z,994.99
2022-11-17T08:03:33.349Z,994.86
2022-11-17T08:04:33.181Z,994.92
2022-11-17T08:05:37.035Z,995.01
2022-11-17T08:06:33.176Z,994.96
2022-11-17T08:07:33.221Z,994.98
2022-11-17T08:08:33.413Z,995.03
2022-11-17T08:09:33.192Z,994.91
2022-11-17T08:10:33.095Z,994.95
2022-11-17T08:11:34.253Z,994.95
2022-11-17T08:12:33.136Z,995.00
2022-11-17T08:13:33.102Z,994.92
2022-11-17T08:14:33.078Z,994.89
2022-11-17T08:15:33.055Z,994.95
2022-11-17T08:16:33.022Z,994.92
2022-11-17T08:17:33.029Z,995.03
2022-11-17T08:18:33.248Z,995.01
2022-11-17T08:19:33.062Z,995.06
2022-11-17T08:20:32.960Z,994.99
2022-11-17T08:21:32.966Z,995.02
2022-11-17T08:22:32.998Z,995.06
2022-11-17T08:23:32.962Z,995.05
2022-11-17T08:24:32.903Z,995.13
2022-11-17T08:25:32.974Z,995.11
2022-11-17T08:26:32.886Z,995.12
2022-11-17T08:27:32.927Z,995.09
2022-11-17T08:28:33.088Z,995.10
2022-11-17T08:29:32.857Z,995.13
2022-11-17T08:30:32.865Z,995.16
2022-11-17T08:31:32.861Z,995.16
2022-11-17T08:32:32.799Z,995.24
2022-11-17T08:33:32.831Z,995.17
2022-11-17T08:34:32.786Z,995.30
2022-11-17T08:35:37.126Z,995.17
2022-11-17T08:36:32.776Z,995.19
2022-11-17T08:37:32.774Z,995.24
2022-11-17T08:38:32.806Z,995.20
2022-11-17T08:39:32.734Z,995.25
2022-11-17T08:40:32.732Z,995.25
2022-11-17T08:41:32.721Z,995.21
2022-11-17T08:42:32.696Z,995.26
2022-11-17T08:43:32.679Z,995.32
2022-11-17T08:44:32.636Z,995.27
2022-11-17T08:45:32.692Z,995.41
2022-11-17T08:46:32.661Z,995.40
2022-11-17T08:47:32.706Z,995.41
2022-11-17T08:48:32.916Z,995.40
2022-11-17T08:49:32.602Z,995.39
2022-11-17T08:50:32.566Z,995.36
2022-11-17T08:51:32.617Z,995.39
2022-11-17T08:52:32.533Z,995.32
2022-11-17T08:53:32.544Z,995.38
2022-11-17T08:54:32.624Z,995.39
2022-11-17T08:55:35.679Z,995.45
2022-11-17T08:56:32.554Z,995.43
2022-11-17T08:57:32.722Z,995.41
2022-11-17T08:58:32.712Z,995.47
2022-11-17T08:59:32.470Z,995.49
2022-11-17T09:00:32.437Z,995.48
2022-11-17T09:01:32.547Z,995.46
2022-11-17T09:02:32.437Z,995.46
2022-11-17T09:03:32.431Z,995.46
2022-11-17T09:04:32.387Z,995.46
2022-11-17T09:05:32.395Z,995.46
2022-11-17T09:06:32.352Z,995.53
2022-11-17T09:07:34.868Z,995.47
2022-11-17T09:08:47.956Z,995.44
2022-11-17T09:09:32.429Z,995.45
2022-11-17T09:10:32.329Z,995.58
2022-11-17T09:11:32.317Z,995.58
2022-11-17T09:12:32.326Z,995.53
2022-11-17T09:13:32.275Z,995.55
2022-11-17T09:14:32.240Z,995.57
2022-11-17T09:15:32.329Z,995.56
2022-11-17T09:16:32.241Z,995.59
2022-11-17T09:17:32.277Z,995.64
2022-11-17T09:18:32.215Z,995.65
2022-11-17T09:19:32.248Z,995.62
2022-11-17T09:20:32.170Z,995.58
2022-11-17T09:21:32.192Z,995.64
2022-11-17T09:22:32.242Z,995.56
2022-11-17T09:23:32.338Z,995.52
2022-11-17T09:24:32.166Z,995.64
2022-11-17T09:25:32.122Z,995.72
2022-11-17T09:26:32.161Z,995.62
2022-11-17T09:27:32.097Z,995.57
2022-11-17T09:28:32.245Z,995.67
2022-11-17T09:30:48.158Z,995.69
2022-11-17T09:31:49.165Z,995.67
2022-11-17T09:32:49.119Z,995.79
2022-11-17T09:33:49.106Z,995.69
2022-11-17T09:34:49.147Z,995.79
2022-11-17T09:35:49.053Z,995.84
2022-11-17T09:36:49.133Z,995.79
2022-11-17T09:37:49.033Z,995.78
2022-11-17T09:38:49.285Z,995.76
2022-11-17T09:39:49.004Z,995.82
2022-11-17T09:40:49.021Z,995.78
2022-11-17T09:41:49.033Z,995.82
2022-11-17T09:42:48.988Z,995.85
2022-11-17T09:43:48.960Z,995.88
2022-11-17T09:44:49.006Z,995.80
2022-11-17T09:45:49.047Z,995.84
2022-11-17T09:46:48.966Z,995.85
2022-11-17T09:47:48.902Z,995.86
2022-11-17T09:48:48.968Z,995.87
2022-11-17T09:49:52.315Z,995.78
2022-11-17T09:50:48.899Z,995.80
2022-11-17T09:51:48.855Z,995.86
2022-11-17T09:52:48.942Z,995.95
2022-11-17T09:53:48.833Z,995.94
2022-11-17T09:54:49.001Z,995.98
2022-11-17T09:55:48.822Z,995.96
2022-11-17T09:56:48.822Z,995.90
2022-11-17T09:57:48.773Z,995.99
2022-11-17T09:58:48.794Z,995.98
2022-11-17T09:59:48.749Z,996.01
2022-11-17T10:00:48.784Z,996.07
2022-11-17T10:01:48.738Z,996.00
2022-11-17T10:02:48.731Z,995.99
2022-11-17T10:03:48.971Z,996.06
2022-11-17T10:04:48.759Z,995.98
2022-11-17T10:05:48.707Z,996.07
2022-11-17T10:06:48.679Z,996.05
2022-11-17T10:07:48.660Z,996.07
2022-11-17T10:08:48.662Z,996.09
2022-11-17T10:09:48.618Z,995.99
2022-11-17T10:10:48.729Z,996.04
2022-11-17T10:11:48.590Z,996.05
2022-11-17T10:12:48.597Z,995.98
2022-11-17T10:13:48.571Z,996.03
2022-11-17T10:14:48.580Z,996.06
2022-11-17T10:15:48.534Z,996.09
2022-11-17T10:16:48.593Z,996.11
2022-11-17T10:17:48.565Z,996.09
2022-11-17T10:18:48.524Z,996.11
2022-11-17T10:19:48.487Z,996.10
2022-11-17T10:20:48.496Z,996.04
2022-11-17T10:21:48.534Z,996.06
2022-11-17T10:22:48.476Z,996.09
2022-11-17T10:23:48.786Z,996.03
2022-11-17T10:24:48.465Z,996.08
2022-11-17T10:25:48.486Z,996.06
2022-11-17T10:26:48.462Z,996.06
2022-11-17T10:27:48.383Z,995.99
2022-11-17T10:28:48.389Z,996.04
2022-11-17T10:29:48.407Z,996.14
2022-11-17T10:30:48.365Z,996.12
2022-11-17T10:31:48.335Z,996.17
2022-11-17T10:32:48.630Z,996.16
2022-11-17T10:33:48.467Z,996.08
2022-11-17T10:34:48.332Z,996.11
2022-11-17T10:35:48.306Z,996.16
2022-11-17T10:36:48.295Z,996.12
2022-11-17T10:37:48.275Z,996.11
2022-11-17T10:38:48.260Z,996.12
2022-11-17T10:39:48.227Z,996.13
2022-11-17T10:40:48.246Z,996.17
2022-11-17T10:41:48.221Z,996.12
2022-11-17T10:42:48.248Z,996.10
2022-11-17T10:43:48.178Z,996.09
2022-11-17T10:44:48.188Z,996.08
2022-11-17T10:45:48.156Z,996.12
2022-11-17T10:46:48.169Z,996.16
2022-11-17T10:47:48.131Z,996.15
2022-11-17T10:48:48.164Z,996.04
2022-11-17T10:49:48.111Z,996.15
2022-11-17T10:50:48.109Z,996.13
2022-11-17T10:51:48.068Z,996.15
2022-11-17T10:52:48.211Z,996.11
2022-11-17T10:53:48.248Z,996.03
2022-11-17T10:54:48.067Z,996.05
2022-11-17T10:55:48.110Z,996.05
2022-11-17T10:56:48.052Z,996.11
2022-11-17T10:57:47.989Z,996.18
2022-11-17T10:58:48.105Z,996.17
2022-11-17T10:59:53.447Z,996.21
2022-11-17T11:00:48.013Z,996.21
2022-11-17T11:01:48.054Z,996.21
2022-11-17T11:02:47.958Z,996.18
2022-11-17T11:03:47.996Z,996.28
2022-11-17T11:04:47.967Z,996.25
2022-11-17T11:05:47.976Z,996.18
2022-11-17T11:06:47.893Z,996.06
2022-11-17T11:07:47.856Z,996.12
2022-11-17T11:08:47.984Z,996.17
2022-11-17T11:09:47.864Z,996.29
2022-11-17T11:10:47.869Z,996.05
2022-11-17T11:11:47.816Z,996.15
2022-11-17T11:12:47.881Z,996.25
2022-11-17T11:13:47.785Z,996.14
2022-11-17T11:14:47.880Z,996.19
2022-11-17T11:15:47.821Z,996.23
2022-11-17T11:16:48.430Z,996.24
2022-11-17T11:17:47.730Z,996.24
2022-11-17T11:18:47.859Z,996.29
2022-11-17T11:19:47.708Z,996.32
2022-11-17T11:20:47.806Z,996.26
2022-11-17T11:21:47.687Z,996.28
2022-11-17T11:22:47.688Z,996.21
2022-11-17T11:23:47.662Z,996.23
2022-11-17T11:24:47.669Z,996.21
2022-11-17T11:25:47.665Z,996.25
2022-11-17T11:26:47.640Z,996.23
2022-11-17T11:27:47.601Z,996.29
2022-11-17T11:28:52.731Z,996.30
2022-11-17T11:29:47.607Z,996.26
2022-11-17T11:30:47.605Z,996.22
2022-11-17T11:31:47.570Z,996.30
2022-11-17T11:32:47.555Z,996.28
2022-11-17T11:33:47.559Z,996.27
2022-11-17T11:34:47.506Z,996.27
2022-11-17T11:35:47.556Z,996.30
2022-11-17T11:36:47.515Z,996.24
2022-11-17T11:37:47.501Z,996.22
2022-11-17T11:38:47.457Z,996.29
2022-11-17T11:39:47.520Z,996.20
2022-11-17T11:40:47.435Z,996.22
2022-11-17T11:41:47.475Z,996.14
2022-11-17T11:42:47.409Z,996.15
2022-11-17T11:43:47.459Z,996.11
2022-11-17T11:44:47.380Z,996.13
2022-11-17T11:45:47.388Z,996.16
2022-11-17T11:46:47.415Z,996.13
2022-11-17T11:47:47.368Z,996.11
2022-11-17T11:48:47.327Z,996.04
2022-11-17T11:49:47.336Z,996.03
2022-11-17T11:50:47.322Z,996.02
2022-11-17T11:51:47.321Z,996.07
2022-11-17T11:52:47.321Z,996.15
2022-11-17T11:53:47.525Z,996.21
2022-11-17T11:54:50.862Z,996.21
2022-11-17T11:55:47.269Z,996.22
2022-11-17T11:56:47.277Z,996.24
2022-11-17T11:57:47.261Z,996.23
2022-11-17T11:58:47.204Z,996.15
2022-11-17T11:59:47.217Z,996.12
2022-11-17T12:00:47.198Z,996.08
2022-11-17T12:01:47.315Z,996.12
2022-11-17T12:02:47.265Z,996.16
2022-11-17T12:03:47.155Z,996.16
2022-11-17T12:04:47.192Z,996.21
2022-11-17T12:05:47.130Z,996.20
2022-11-17T12:06:47.097Z,996.13
2022-11-17T12:07:47.109Z,996.16
2022-11-17T12:08:47.164Z,996.15
2022-11-17T12:09:47.086Z,996.16
2022-11-17T12:10:47.067Z,996.14
2022-11-17T12:11:47.062Z,996.09
2022-11-17T12:12:47.114Z,996.05
2022-11-17T12:13:52.724Z,996.02
2022-11-17T12:14:47.002Z,996.06
2022-11-17T12:15:47.003Z,996.05
2022-11-17T12:16:47.042Z,996.04
2022-11-17T12:17:46.987Z,996.09
2022-11-17T12:18:46.974Z,996.08
2022-11-17T12:19:46.955Z,996.07
2022-11-17T12:20:46.988Z,995.97
2022-11-17T12:21:46.919Z,996.00
2022-11-17T12:22:46.886Z,996.03
2022-11-17T12:23:46.909Z,996.03
2022-11-17T12:24:46.904Z,996.05
2022-11-17T12:25:53.292Z,996.03
2022-11-17T12:26:46.836Z,996.04
2022-11-17T12:27:46.850Z,996.06
2022-11-17T12:28:46.825Z,996.00
2022-11-17T12:29:46.842Z,995.96